createdAt,value
2017-12-11T00:01:00.975Z,9.50
2017-12-11T00:03:30.113Z,8.77
2017-12-11T00:05:59.215Z,8.37
2017-12-11T00:08:28.037Z,8.07
2017-12-11T00:10:56.955Z,11.50
2017-12-11T00:13:25.781Z,9.50
2017-12-11T00:16:00.500Z,9.33
2017-12-11T00:18:29.359Z,10.77
2017-12-11T00:20:58.191Z,11.40
2017-12-11T00:23:27.030Z,9.10
2017-12-11T00:25:55.850Z,8.37
2017-12-11T00:28:24.678Z,9.20
2017-12-11T00:30:53.597Z,8.30
2017-12-11T00:33:22.506Z,7.50
2017-12-11T00:35:51.330Z,7.77
2017-12-11T00:38:20.166Z,8.20
2017-12-11T00:40:49.080Z,8.80
2017-12-11T00:43:17.902Z,7.83
2017-12-11T00:45:46.738Z,7.03
2017-12-11T00:48:15.639Z,7.50
2017-12-11T00:50:44.462Z,8.40
2017-12-11T00:53:13.294Z,7.57
2017-12-11T00:55:42.127Z,7.70
2017-12-11T00:58:11.004Z,7.90
2017-12-11T01:00:39.851Z,9.07
2017-12-11T01:03:08.690Z,8.00
2017-12-11T01:05:37.528Z,6.87
2017-12-11T01:08:06.357Z,6.50
2017-12-11T01:10:35.195Z,5.87
2017-12-11T01:13:04.025Z,6.53
2017-12-11T01:15:32.859Z,6.70
2017-12-11T01:18:01.711Z,6.30
2017-12-11T01:20:30.534Z,6.50
2017-12-11T01:22:59.368Z,6.63
2017-12-11T01:25:28.209Z,6.80
2017-12-11T01:27:57.043Z,6.80
2017-12-11T01:30:25.871Z,7.50
2017-12-11T01:32:54.695Z,6.57
2017-12-11T01:35:23.524Z,6.50
2017-12-11T01:37:52.442Z,7.00
2017-12-11T01:40:21.337Z,7.00
2017-12-11T01:42:50.166Z,6.40
2017-12-11T01:45:18.997Z,7.00
2017-12-11T01:47:47.910Z,6.77
2017-12-11T01:50:16.726Z,6.20
2017-12-11T01:52:45.590Z,6.00
2017-12-11T01:55:14.418Z,6.47
2017-12-11T01:57:43.279Z,6.80
2017-12-11T02:00:12.110Z,6.20
2017-12-11T02:02:40.945Z,6.17
2017-12-11T02:05:09.777Z,6.70
2017-12-11T02:07:38.632Z,6.47
2017-12-11T02:10:07.519Z,6.20
2017-12-11T02:12:36.405Z,6.77
2017-12-11T02:15:05.293Z,7.87
2017-12-11T02:17:34.119Z,7.03
2017-12-11T02:20:02.940Z,7.50
2017-12-11T02:22:31.785Z,7.50
2017-12-11T02:25:00.657Z,7.80
2017-12-11T02:27:29.479Z,6.83
2017-12-11T02:29:58.316Z,6.97
2017-12-11T02:32:27.150Z,7.87
2017-12-11T02:34:55.979Z,8.33
2017-12-11T02:37:24.822Z,8.00
2017-12-11T02:39:53.717Z,9.93
2017-12-11T02:42:22.542Z,9.67
2017-12-11T02:44:51.388Z,10.00
2017-12-11T02:47:20.274Z,8.70
2017-12-11T02:49:49.096Z,7.83
2017-12-11T02:52:17.930Z,8.20
2017-12-11T02:54:46.756Z,8.03
2017-12-11T02:57:15.630Z,10.07
2017-12-11T02:59:44.461Z,8.20
2017-12-11T03:02:13.318Z,10.00
2017-12-11T03:04:42.145Z,10.03
2017-12-11T03:07:11.093Z,9.50
2017-12-11T03:09:39.922Z,10.70
2017-12-11T03:12:08.761Z,11.67
2017-12-11T03:14:37.666Z,10.17
2017-12-11T03:17:06.495Z,10.80
2017-12-11T03:19:35.331Z,10.33
2017-12-11T03:22:04.171Z,10.43
2017-12-11T03:24:33.058Z,10.60
2017-12-11T03:27:01.843Z,10.27
2017-12-11T03:29:30.729Z,11.90
2017-12-11T03:31:59.552Z,10.30
2017-12-11T03:34:28.381Z,12.30
2017-12-11T03:36:57.222Z,13.23
2017-12-11T03:39:26.059Z,11.27
2017-12-11T03:41:54.882Z,13.30
2017-12-11T03:44:24.058Z,13.17
2017-12-11T03:46:52.888Z,12.33
2017-12-11T03:49:21.834Z,12.70
2017-12-11T03:51:51.031Z,12.50
2017-12-11T03:54:20.166Z,13.90
2017-12-11T03:56:48.994Z,13.20
2017-12-11T03:59:17.909Z,13.40
2017-12-11T04:01:46.733Z,14.10
2017-12-11T04:04:15.566Z,13.80
2017-12-11T04:06:44.405Z,14.50
2017-12-11T04:09:13.407Z,14.67
2017-12-11T04:11:42.245Z,14.87
2017-12-11T04:14:11.089Z,15.90
2017-12-11T04:16:39.919Z,13.90
2017-12-11T04:19:08.751Z,13.97
2017-12-11T04:21:37.603Z,13.20
2017-12-11T04:24:06.431Z,19.17
2017-12-11T04:26:35.297Z,14.10
2017-12-11T04:29:04.143Z,13.80
2017-12-11T04:31:32.967Z,12.90
2017-12-11T04:34:01.805Z,13.43
2017-12-11T04:36:30.665Z,12.83
2017-12-11T04:38:59.488Z,13.50
2017-12-11T04:41:28.318Z,12.30
2017-12-11T04:43:57.236Z,13.30
2017-12-11T04:46:26.150Z,13.23
2017-12-11T04:48:55.194Z,13.47
2017-12-11T04:51:24.030Z,11.57
2017-12-11T04:53:52.894Z,13.83
2017-12-11T04:56:21.730Z,12.73
2017-12-11T04:58:50.688Z,13.00
2017-12-11T05:01:19.577Z,11.87
2017-12-11T05:03:48.463Z,12.33
2017-12-11T05:06:17.307Z,13.47
2017-12-11T05:08:46.133Z,14.50
2017-12-11T05:11:14.965Z,13.73
2017-12-11T05:13:43.834Z,12.50
2017-12-11T05:16:12.672Z,11.20
2017-12-11T05:18:41.493Z,11.63
2017-12-11T05:21:10.391Z,11.50
2017-12-11T05:23:39.213Z,10.50
2017-12-11T05:26:08.043Z,11.80
2017-12-11T05:28:36.888Z,11.60
2017-12-11T05:31:05.718Z,11.30
2017-12-11T05:33:34.547Z,11.03
2017-12-11T05:36:03.398Z,10.90
2017-12-11T05:38:32.234Z,11.20
2017-12-11T05:41:01.079Z,10.40
2017-12-11T05:43:29.914Z,9.83
2017-12-11T05:45:58.740Z,10.97
2017-12-11T05:48:27.686Z,11.13
2017-12-11T05:50:56.574Z,10.70
2017-12-11T05:53:25.406Z,11.40
2017-12-11T05:55:54.239Z,11.67
2017-12-11T05:58:23.082Z,11.77
2017-12-11T06:00:51.906Z,11.53
2017-12-11T06:03:20.749Z,19.20
2017-12-11T06:05:49.601Z,18.63
2017-12-11T06:08:18.469Z,11.50
2017-12-11T06:10:47.297Z,12.60
2017-12-11T06:13:16.147Z,12.77
2017-12-11T06:15:44.991Z,14.93
2017-12-11T06:18:13.817Z,13.93
2017-12-11T06:20:42.662Z,14.17
2017-12-11T06:23:11.487Z,16.00
2017-12-11T06:25:40.339Z,14.83
2017-12-11T06:28:09.183Z,12.93
2017-12-11T06:43:25.582Z,15.90
2017-12-11T06:45:54.410Z,13.40
2017-12-11T06:48:23.242Z,12.40
2017-12-11T06:50:52.078Z,15.37
2017-12-11T06:53:20.906Z,14.57
2017-12-11T06:55:49.762Z,12.33
2017-12-11T06:58:18.614Z,13.33
2017-12-11T07:00:47.547Z,13.10
2017-12-11T07:03:16.378Z,12.53
2017-12-11T07:05:45.227Z,13.93
2017-12-11T07:08:14.113Z,14.77
2017-12-11T07:10:42.948Z,13.43
2017-12-11T07:13:11.895Z,13.50
2017-12-11T07:15:40.725Z,14.97
2017-12-11T07:18:09.559Z,12.70
2017-12-11T07:20:38.411Z,13.67
2017-12-11T07:23:07.237Z,12.97
2017-12-11T07:25:36.153Z,13.80
2017-12-11T07:28:05.039Z,13.10
2017-12-11T07:30:33.871Z,13.17
2017-12-11T07:33:02.805Z,13.80
2017-12-11T07:35:31.711Z,12.47
2017-12-11T07:38:00.551Z,12.40
2017-12-11T07:40:29.430Z,12.00
2017-12-11T07:42:58.270Z,12.27
2017-12-11T07:45:27.170Z,16.80
2017-12-11T07:47:55.994Z,19.73
2017-12-11T07:50:24.846Z,18.67
2017-12-11T07:52:53.670Z,17.03
2017-12-11T07:55:22.508Z,13.40
2017-12-11T07:57:51.422Z,11.50
2017-12-11T08:00:20.314Z,12.80
2017-12-11T08:02:49.209Z,11.60
2017-12-11T08:05:18.051Z,12.77
2017-12-11T08:07:46.881Z,13.97
2017-12-11T08:10:15.715Z,12.90
2017-12-11T08:12:44.567Z,12.37
2017-12-11T08:15:13.392Z,11.90
2017-12-11T08:17:42.219Z,12.97
2017-12-11T08:20:11.069Z,10.90
2017-12-11T08:22:40.669Z,11.27
2017-12-11T08:25:09.495Z,10.90
2017-12-11T08:27:38.437Z,11.77
2017-12-11T08:30:07.261Z,12.20
2017-12-11T08:32:38.945Z,11.37
2017-12-11T08:35:07.860Z,11.57
2017-12-11T08:37:36.677Z,10.63
2017-12-11T08:40:05.523Z,10.70
2017-12-11T08:42:34.346Z,10.20
2017-12-11T08:45:03.176Z,12.20
2017-12-11T08:47:32.014Z,10.67
2017-12-11T08:50:00.834Z,14.27
2017-12-11T08:52:29.661Z,10.73
2017-12-11T08:54:58.498Z,12.10
2017-12-11T08:57:27.345Z,12.93
2017-12-11T08:59:56.166Z,11.10
2017-12-11T09:02:25.002Z,9.30
2017-12-11T09:04:53.831Z,9.90
2017-12-11T09:07:22.654Z,9.93
2017-12-11T09:09:51.489Z,10.07
2017-12-11T09:12:20.364Z,9.83
2017-12-11T09:14:49.176Z,10.43
2017-12-11T09:17:18.023Z,10.83
2017-12-11T09:19:46.925Z,11.13
2017-12-11T09:22:15.763Z,9.47
2017-12-11T09:24:44.619Z,8.80
2017-12-11T09:27:13.545Z,7.93
2017-12-11T09:29:42.369Z,8.23
2017-12-11T09:32:11.219Z,8.83
2017-12-11T09:34:40.127Z,11.90
2017-12-11T09:37:09.004Z,8.77
2017-12-11T09:39:37.901Z,8.60
2017-12-11T09:42:06.782Z,7.77
2017-12-11T09:44:35.608Z,7.60
2017-12-11T09:47:04.434Z,6.90
2017-12-11T09:49:33.266Z,7.03
2017-12-11T09:52:02.139Z,7.10
2017-12-11T09:54:30.960Z,6.87
2017-12-11T09:56:59.826Z,5.97
2017-12-11T09:59:28.726Z,5.60
2017-12-11T10:01:57.663Z,4.70
2017-12-11T10:04:26.458Z,5.63
2017-12-11T10:06:55.402Z,5.70
2017-12-11T10:09:24.286Z,6.27
2017-12-11T10:11:53.110Z,6.53
2017-12-11T10:14:21.984Z,5.67
2017-12-11T10:16:50.858Z,4.13
2017-12-11T10:19:19.753Z,4.70
2017-12-11T10:21:48.574Z,5.50
2017-12-11T10:24:17.405Z,5.00
2017-12-11T10:26:46.225Z,6.57
2017-12-11T10:29:15.105Z,4.83
2017-12-11T10:31:43.944Z,4.93
2017-12-11T10:34:12.807Z,5.83
2017-12-11T10:36:41.921Z,5.00
2017-12-11T10:39:10.777Z,4.60
2017-12-11T10:41:39.658Z,5.57
2017-12-11T10:44:08.486Z,5.50
2017-12-11T10:46:37.375Z,4.80
2017-12-11T10:49:06.195Z,6.60
2017-12-11T10:51:35.015Z,4.93
2017-12-11T10:54:03.855Z,5.60
2017-12-11T10:56:32.700Z,5.63
2017-12-11T10:59:01.518Z,6.57
2017-12-11T11:01:30.350Z,6.27
2017-12-11T11:03:59.182Z,6.50
2017-12-11T11:06:28.062Z,6.40
2017-12-11T11:08:57.221Z,6.90
2017-12-11T11:11:26.042Z,6.37
2017-12-11T11:13:54.868Z,5.17
2017-12-11T11:16:23.701Z,5.53
2017-12-11T11:18:52.626Z,6.17
2017-12-11T11:21:21.527Z,4.13
2017-12-11T11:23:50.357Z,5.77
2017-12-11T11:26:19.183Z,4.80
2017-12-11T11:28:48.013Z,4.43
2017-12-11T11:31:16.863Z,4.20
2017-12-11T11:33:45.709Z,4.43
2017-12-11T11:36:14.533Z,6.40
2017-12-11T11:38:43.363Z,6.27
2017-12-11T11:41:12.193Z,4.73
2017-12-11T11:43:41.018Z,4.87
2017-12-11T11:46:09.858Z,4.93
2017-12-11T11:48:38.672Z,5.17
2017-12-11T11:51:07.498Z,6.13
2017-12-11T11:53:36.335Z,6.13
2017-12-11T11:56:05.163Z,7.03
2017-12-11T11:58:34.096Z,6.30
2017-12-11T12:01:02.924Z,7.97
2017-12-11T12:03:31.747Z,8.50
2017-12-11T12:06:00.586Z,8.33
2017-12-11T12:08:29.432Z,7.03
2017-12-11T12:10:58.392Z,8.30
2017-12-11T12:13:27.162Z,7.77
2017-12-11T12:15:55.997Z,7.87
2017-12-11T12:18:24.830Z,8.13
2017-12-11T12:20:53.654Z,9.07
2017-12-11T12:23:22.561Z,8.10
2017-12-11T12:25:51.397Z,8.37
2017-12-11T12:28:20.255Z,7.07
2017-12-11T12:30:49.138Z,7.10
2017-12-11T12:33:17.955Z,8.00
2017-12-11T12:35:46.773Z,8.20
2017-12-11T12:38:15.607Z,8.30
2017-12-11T12:40:44.431Z,8.93
2017-12-11T12:43:13.289Z,7.73
2017-12-11T12:45:42.135Z,12.63
2017-12-11T12:48:11.076Z,12.87
2017-12-11T12:50:39.909Z,10.00
2017-12-11T12:53:08.758Z,10.57
2017-12-11T12:55:37.586Z,7.63
2017-12-11T12:58:06.414Z,8.23
2017-12-11T13:00:35.264Z,8.27
2017-12-11T13:03:04.082Z,7.93
2017-12-11T13:05:32.914Z,12.60
2017-12-11T13:08:01.762Z,12.23
2017-12-11T13:10:30.590Z,11.80
2017-12-11T13:12:59.414Z,9.70
2017-12-11T13:15:28.255Z,8.00
2017-12-11T13:17:57.138Z,7.50
2017-12-11T13:20:25.969Z,7.93
2017-12-11T13:22:54.806Z,8.30
2017-12-11T13:25:23.625Z,9.20
2017-12-11T13:27:52.445Z,9.90
2017-12-11T13:30:21.277Z,8.23
2017-12-11T13:32:50.109Z,8.33
2017-12-11T13:35:18.975Z,8.13
2017-12-11T13:37:47.823Z,8.20
2017-12-11T13:40:16.655Z,7.97
2017-12-11T13:42:45.539Z,8.63
2017-12-11T13:45:14.771Z,8.90
2017-12-11T13:47:43.613Z,10.57
2017-12-11T13:50:12.437Z,10.50
2017-12-11T13:52:41.267Z,8.97
2017-12-11T13:55:10.199Z,8.97
2017-12-11T13:57:39.039Z,10.60
2017-12-11T14:00:07.978Z,9.63
2017-12-11T14:02:36.890Z,9.83
2017-12-11T14:05:05.710Z,9.30
2017-12-11T14:07:34.550Z,8.40
2017-12-11T14:10:03.393Z,9.10
2017-12-11T14:12:32.218Z,10.50
2017-12-11T14:15:01.064Z,7.50
2017-12-11T14:17:29.893Z,7.00
2017-12-11T14:19:58.743Z,7.83
2017-12-11T14:22:27.897Z,12.13
2017-12-11T14:24:56.747Z,19.60
2017-12-11T14:27:25.577Z,29.20
2017-12-11T14:29:54.428Z,34.47
2017-12-11T14:32:23.258Z,34.73
2017-12-11T14:34:52.109Z,12.87
2017-12-11T14:37:21.041Z,14.13
2017-12-11T14:39:49.879Z,12.40
2017-12-11T14:42:18.711Z,14.80
2017-12-11T14:44:47.619Z,18.70
2017-12-11T14:47:16.460Z,15.87
2017-12-11T14:49:45.281Z,15.10
2017-12-11T14:52:14.133Z,11.03
2017-12-11T14:54:42.971Z,10.93
2017-12-11T14:57:11.803Z,12.80
2017-12-11T14:59:40.659Z,12.00
2017-12-11T15:02:09.487Z,10.80
2017-12-11T15:04:38.586Z,11.77
2017-12-11T15:07:07.430Z,11.80
2017-12-11T15:09:36.262Z,13.60
2017-12-11T15:12:05.102Z,12.13
2017-12-11T15:14:33.958Z,11.87
2017-12-11T15:17:02.790Z,10.90
2017-12-11T15:19:31.628Z,18.53
2017-12-11T15:22:00.573Z,10.30
2017-12-11T15:24:29.404Z,9.47
2017-12-11T15:26:58.221Z,9.40
2017-12-11T15:29:27.081Z,9.10
2017-12-11T15:31:55.911Z,10.90
2017-12-11T15:34:24.834Z,9.67
2017-12-11T15:36:53.675Z,10.50
2017-12-11T15:39:22.515Z,11.57
2017-12-11T15:41:51.343Z,10.40
2017-12-11T15:44:20.187Z,10.80
2017-12-11T15:46:49.074Z,10.70
2017-12-11T15:49:18.103Z,10.93
2017-12-11T15:51:46.946Z,10.50
2017-12-11T15:54:15.780Z,9.87
2017-12-11T15:56:44.641Z,9.40
2017-12-11T15:59:13.531Z,9.00
2017-12-11T16:01:42.422Z,9.20
2017-12-11T16:04:11.254Z,10.17
2017-12-11T16:06:40.098Z,10.63
2017-12-11T16:09:08.994Z,10.00
2017-12-11T16:11:37.822Z,10.60
2017-12-11T16:14:06.666Z,9.27
2017-12-11T16:16:35.494Z,9.10
2017-12-11T16:19:04.326Z,9.40
2017-12-11T16:21:33.246Z,9.40
2017-12-11T16:24:02.159Z,9.43
2017-12-11T16:26:30.989Z,11.20
2017-12-11T16:28:59.913Z,10.53
2017-12-11T16:31:28.744Z,9.90
2017-12-11T16:33:57.605Z,10.30
2017-12-11T16:36:26.457Z,8.53
2017-12-11T16:38:55.287Z,9.23
2017-12-11T16:41:24.117Z,11.27
2017-12-11T16:43:52.961Z,14.50
2017-12-11T16:46:21.796Z,12.20
2017-12-11T16:48:50.627Z,10.63
2017-12-11T16:51:19.687Z,11.00
2017-12-11T16:53:48.505Z,10.43
2017-12-11T16:56:17.330Z,9.67
2017-12-11T16:58:46.175Z,10.73
2017-12-11T17:01:15.007Z,8.73
2017-12-11T17:03:43.839Z,10.17
2017-12-11T17:06:12.675Z,9.63
2017-12-11T17:08:41.520Z,10.47
2017-12-11T17:11:10.342Z,9.50
2017-12-11T17:13:39.550Z,10.77
2017-12-11T17:16:08.391Z,11.30
2017-12-11T17:18:37.330Z,11.63
2017-12-11T17:21:06.169Z,10.77
2017-12-11T17:23:35.106Z,10.43
2017-12-11T17:26:03.930Z,11.70
2017-12-11T17:28:32.797Z,12.47
2017-12-11T17:31:01.933Z,11.17
2017-12-11T17:33:30.783Z,11.53
2017-12-11T17:35:59.631Z,11.00
2017-12-11T17:38:28.464Z,11.67
2017-12-11T17:40:57.291Z,11.60
2017-12-11T17:43:26.245Z,11.40
2017-12-11T17:45:55.092Z,9.90
2017-12-11T17:48:23.919Z,9.23
2017-12-11T17:50:52.747Z,9.30
2017-12-11T17:53:21.738Z,11.10
2017-12-11T17:55:50.564Z,10.20
2017-12-11T17:58:19.406Z,11.87
2017-12-11T18:00:48.237Z,12.60
2017-12-11T18:03:17.115Z,11.57
2017-12-11T18:05:46.002Z,12.83
2017-12-11T18:08:14.842Z,15.30
2017-12-11T18:10:43.682Z,13.37
2017-12-11T18:13:12.549Z,16.87
2017-12-11T18:15:41.920Z,15.50
2017-12-11T18:18:10.828Z,15.27
2017-12-11T18:20:39.694Z,16.00
2017-12-11T18:23:08.535Z,15.70
2017-12-11T18:25:37.377Z,15.70
2017-12-11T18:28:06.218Z,16.20
2017-12-11T18:30:35.098Z,16.70
2017-12-11T18:33:03.925Z,13.53
2017-12-11T18:35:32.767Z,12.90
2017-12-11T18:38:01.609Z,12.93
2017-12-11T18:40:30.509Z,11.93
2017-12-11T18:42:59.364Z,12.73
2017-12-11T18:45:28.249Z,12.23
2017-12-11T18:47:57.076Z,14.20
2017-12-11T18:50:25.923Z,15.80
2017-12-11T18:52:54.756Z,49.70
2017-12-11T18:55:23.847Z,13.97
2017-12-11T18:57:52.772Z,14.47
2017-12-11T19:00:22.949Z,15.93
2017-12-11T19:02:51.893Z,12.80
2017-12-11T19:05:20.741Z,14.43
2017-12-11T19:07:49.678Z,14.63
2017-12-11T19:10:18.553Z,20.30
2017-12-11T19:12:47.514Z,15.93
2017-12-11T19:15:16.476Z,17.50
2017-12-11T19:17:45.322Z,16.13
2017-12-11T19:20:14.141Z,16.00
2017-12-11T19:22:43.024Z,16.97
2017-12-11T19:25:11.876Z,16.70
2017-12-11T19:27:40.717Z,15.80
2017-12-11T19:30:09.632Z,15.97
2017-12-11T19:32:38.715Z,16.10
2017-12-11T19:35:07.686Z,17.50
2017-12-11T19:37:36.586Z,18.83
2017-12-11T19:40:05.435Z,19.57
2017-12-11T19:42:34.277Z,18.33
2017-12-11T19:45:03.191Z,20.70
2017-12-11T19:47:32.431Z,19.40
2017-12-11T19:50:01.305Z,20.33
2017-12-11T19:52:30.137Z,18.00
2017-12-11T19:54:59.167Z,16.87
2017-12-11T19:57:28.032Z,16.60
2017-12-11T19:59:56.941Z,15.30
2017-12-11T20:02:25.831Z,16.83
2017-12-11T20:04:54.696Z,16.10
2017-12-11T20:07:23.688Z,17.27
2017-12-11T20:09:52.788Z,16.93
2017-12-11T20:12:21.748Z,16.93
2017-12-11T20:14:50.704Z,16.00
2017-12-11T20:17:19.649Z,15.13
2017-12-11T20:19:48.516Z,15.80
2017-12-11T20:22:17.442Z,15.37
2017-12-11T20:24:46.408Z,15.40
2017-12-11T20:27:15.368Z,15.93
2017-12-11T20:29:44.287Z,15.00
2017-12-11T20:32:13.248Z,14.90
2017-12-11T20:34:42.122Z,16.10
2017-12-11T20:37:10.972Z,14.20
2017-12-11T20:39:39.850Z,15.80
2017-12-11T20:42:08.697Z,16.83
2017-12-11T20:44:37.539Z,16.80
2017-12-11T20:47:06.665Z,16.90
2017-12-11T20:49:35.534Z,17.13
2017-12-11T20:52:04.451Z,15.90
2017-12-11T20:54:33.359Z,26.13
2017-12-11T20:57:02.221Z,15.47
2017-12-11T20:59:31.075Z,16.53
2017-12-11T21:01:59.915Z,15.37
2017-12-11T21:04:28.774Z,15.37
2017-12-11T21:06:57.616Z,17.50
2017-12-11T21:09:26.463Z,17.50
2017-12-11T21:11:55.302Z,18.17
2017-12-11T21:14:24.158Z,17.13
2017-12-11T21:16:53.008Z,17.03
2017-12-11T21:19:21.837Z,17.77
2017-12-11T21:21:50.710Z,17.90
2017-12-11T21:24:19.549Z,17.50
2017-12-11T21:26:48.386Z,17.07
2017-12-11T21:29:17.222Z,17.00
2017-12-11T21:31:46.073Z,15.50
2017-12-11T21:34:14.912Z,16.03
2017-12-11T21:36:43.740Z,15.50
2017-12-11T21:39:12.592Z,14.40
2017-12-11T21:41:41.419Z,15.77
2017-12-11T21:44:10.252Z,14.30
2017-12-11T21:46:39.091Z,13.47
2017-12-11T21:49:07.927Z,14.13
2017-12-11T21:51:36.766Z,12.63
2017-12-11T21:54:05.615Z,13.27
2017-12-11T21:56:34.447Z,12.37
2017-12-11T21:59:03.277Z,14.00
2017-12-11T22:01:32.126Z,14.40
2017-12-11T22:04:00.959Z,12.87
2017-12-11T22:06:29.789Z,13.67
2017-12-11T22:08:58.632Z,15.63
2017-12-11T22:11:27.474Z,15.70
2017-12-11T22:13:56.328Z,27.57
2017-12-11T22:16:25.168Z,17.03
2017-12-11T22:18:54.009Z,14.00
2017-12-11T22:21:22.858Z,13.20
2017-12-11T22:23:51.710Z,11.90
2017-12-11T22:26:20.892Z,14.53
2017-12-11T22:28:49.728Z,13.97
2017-12-11T22:31:18.604Z,12.97
2017-12-11T22:33:47.540Z,12.13
2017-12-11T22:36:16.413Z,11.73
2017-12-11T22:38:45.302Z,10.60
2017-12-11T22:41:14.139Z,11.10
2017-12-11T22:43:42.970Z,11.00
2017-12-11T22:46:11.813Z,11.77
2017-12-11T22:48:40.644Z,12.37
2017-12-11T22:51:09.467Z,17.00
2017-12-11T22:53:38.338Z,14.53
2017-12-11T22:56:07.175Z,14.17
2017-12-11T22:58:36.001Z,14.33
2017-12-11T23:01:04.947Z,12.67
2017-12-11T23:03:33.775Z,14.10
2017-12-11T23:06:02.597Z,12.30
2017-12-11T23:08:31.572Z,12.07
2017-12-11T23:11:00.403Z,11.10
2017-12-11T23:13:29.229Z,11.40
2017-12-11T23:15:58.070Z,11.77
2017-12-11T23:18:26.906Z,10.77
2017-12-11T23:20:55.859Z,12.00
2017-12-11T23:23:24.700Z,10.93
2017-12-11T23:25:53.534Z,12.10
2017-12-11T23:28:22.366Z,12.70
2017-12-11T23:30:51.228Z,11.23
2017-12-11T23:33:20.081Z,12.53
2017-12-11T23:35:48.982Z,11.87
2017-12-11T23:38:17.834Z,10.73
2017-12-11T23:40:46.758Z,12.50
2017-12-11T23:43:15.654Z,12.27
2017-12-11T23:45:44.530Z,12.37
2017-12-11T23:48:13.601Z,11.50
2017-12-11T23:50:42.446Z,11.60
2017-12-11T23:53:11.281Z,11.70
2017-12-11T23:55:40.113Z,11.47
2017-12-11T23:58:08.986Z,12.27
